Time;durP1;ratioP1;P1;durP2;ratioP2;P2;SDS_P1;SDS_P2;PMS_P1;PMS_P2;Temp;Humidity;BMP_temperature;BMP_pressure;BME280_temperature;BME280_humidity;BME280_pressure;Samples;Min_cycle;Max_cycle;Signal;HPM_P1;HPM_P2
2023/02/08 03:01:28;;;;;;;17.00;15.30;;;-4.00;99.90;;;;;;5569101;23;20501;-78
2023/02/08 03:03:56;;;;;;;19.60;16.70;;;-4.00;99.90;;;;;;4928100;29;20444;-78
2023/02/08 03:06:36;;;;;;;17.13;15.37;;;-4.00;99.90;;;;;;4945939;29;20483;-78
2023/02/08 03:09:20;;;;;;;17.90;16.03;;;-4.00;99.90;;;;;;4929899;29;20999;-77
2023/02/08 03:11:56;;;;;;;18.70;15.80;;;-4.10;99.90;;;;;;4922535;29;20551;-78
2023/02/08 03:14:40;;;;;;;17.87;16.07;;;-4.10;99.90;;;;;;4954999;23;20480;-75
2023/02/08 03:17:21;;;;;;;17.00;15.40;;;-4.10;99.90;;;;;;4912475;29;20460;-78
2023/02/08 03:19:58;;;;;;;17.63;15.83;;;-4.20;99.90;;;;;;4909417;29;20485;-78
2023/02/08 03:22:33;;;;;;;18.70;16.73;;;-4.30;99.90;;;;;;4924395;29;20477;-76
2023/02/08 03:25:02;;;;;;;16.57;14.97;;;-4.20;99.90;;;;;;4930339;29;20463;-77
2023/02/08 03:27:34;;;;;;;17.40;15.60;;;-4.20;99.90;;;;;;4924562;29;20487;-76
2023/02/08 03:30:06;;;;;;;17.03;15.33;;;-4.30;99.90;;;;;;4928448;29;20463;-77
2023/02/08 03:32:39;;;;;;;17.77;16.07;;;-4.30;99.90;;;;;;4917127;29;20460;-77
2023/02/08 03:35:11;;;;;;;18.63;16.77;;;-4.30;99.90;;;;;;4929701;29;20752;-78
2023/02/08 03:37:42;;;;;;;18.63;16.70;;;-4.30;99.90;;;;;;4927976;29;20436;-78
2023/02/08 03:40:14;;;;;;;17.40;15.70;;;-4.40;99.90;;;;;;4923772;29;20457;-78
2023/02/08 03:42:41;;;;;;;17.20;15.40;;;-4.40;99.90;;;;;;4930246;29;20440;-77
2023/02/08 03:45:16;;;;;;;16.87;15.47;;;-4.40;99.90;;;;;;4925322;29;20472;-77
2023/02/08 03:47:47;;;;;;;16.47;15.07;;;-4.40;99.90;;;;;;4921828;29;20480;-77
2023/02/08 03:50:17;;;;;;;17.60;15.90;;;-4.30;99.90;;;;;;4925509;29;20498;-77
2023/02/08 03:52:46;;;;;;;18.77;15.67;;;-4.40;99.90;;;;;;4927525;29;20477;-84
2023/02/08 03:55:17;;;;;;;18.90;17.00;;;-4.40;99.90;;;;;;4918381;29;20483;-81
2023/02/08 03:57:49;;;;;;;17.60;15.87;;;-4.40;99.90;;;;;;4912901;29;20485;-81
2023/02/08 04:00:18;;;;;;;18.83;16.77;;;-4.50;99.90;;;;;;4896937;29;20855;-82
2023/02/08 04:02:51;;;;;;;18.33;16.33;;;-4.40;99.90;;;;;;4899426;29;20481;-82
2023/02/08 04:05:19;;;;;;;19.93;16.83;;;-4.50;99.90;;;;;;4900400;29;20473;-83
2023/02/08 04:07:47;;;;;;;17.10;15.53;;;-4.50;99.90;;;;;;4903503;29;20463;-83
2023/02/08 04:10:15;;;;;;;17.53;15.80;;;-4.50;99.90;;;;;;4898448;29;20457;-82
2023/02/08 04:12:41;;;;;;;17.93;16.33;;;-4.60;99.90;;;;;;4900544;29;20523;-82
2023/02/08 04:15:09;;;;;;;19.03;17.00;;;-4.60;99.90;;;;;;4906793;29;20484;-83
2023/02/08 04:17:36;;;;;;;18.20;16.33;;;-4.70;99.90;;;;;;4910494;29;20467;-84
2023/02/08 04:20:05;;;;;;;18.40;16.67;;;-4.80;99.90;;;;;;4900113;29;20519;-83
2023/02/08 04:22:32;;;;;;;18.00;16.10;;;-4.90;99.90;;;;;;4899418;29;20449;-83
2023/02/08 04:24:59;;;;;;;17.70;15.97;;;-4.90;99.90;;;;;;4906336;29;20469;-82
2023/02/08 04:27:26;;;;;;;18.20;16.40;;;-4.80;99.90;;;;;;4909348;29;21031;-83
2023/02/08 04:29:53;;;;;;;17.73;15.93;;;-4.90;99.90;;;;;;4906051;29;20449;-82
2023/02/08 04:32:19;;;;;;;18.33;15.93;;;-4.90;99.90;;;;;;4909985;29;20471;-83
2023/02/08 04:34:46;;;;;;;17.83;15.73;;;-5.00;99.90;;;;;;4908199;29;20480;-82
2023/02/08 04:37:15;;;;;;;17.33;15.63;;;-5.10;99.90;;;;;;4913197;29;20468;-77
2023/02/08 04:39:41;;;;;;;17.87;16.07;;;-5.10;99.90;;;;;;4909774;29;20496;-78
2023/02/08 04:42:09;;;;;;;18.30;16.53;;;-5.10;99.90;;;;;;4914904;29;20456;-77
2023/02/08 04:44:35;;;;;;;17.83;16.03;;;-5.20;99.90;;;;;;4915099;29;20442;-78
2023/02/08 04:47:02;;;;;;;18.73;16.83;;;-5.20;99.90;;;;;;4909876;29;20459;-78
2023/02/08 04:49:29;;;;;;;20.37;16.63;;;-5.30;99.90;;;;;;4912774;29;21036;-78
2023/02/08 04:51:56;;;;;;;18.37;16.47;;;-5.30;99.90;;;;;;4913284;29;20452;-78
2023/02/08 04:54:24;;;;;;;18.17;16.37;;;-5.40;99.90;;;;;;4917442;29;20428;-78
2023/02/08 04:56:51;;;;;;;18.10;16.40;;;-5.50;99.90;;;;;;4919628;29;20474;-78
2023/02/08 04:59:18;;;;;;;20.30;16.73;;;-5.60;99.90;;;;;;4915009;29;20440;-77
2023/02/08 05:01:45;;;;;;;19.73;17.73;;;-5.60;99.90;;;;;;4911117;29;20467;-77
2023/02/08 05:04:12;;;;;;;19.13;17.13;;;-5.50;99.90;;;;;;4914502;29;20484;-78
2023/02/08 05:06:39;;;;;;;19.00;17.07;;;-5.50;99.90;;;;;;4913022;29;20477;-78
2023/02/08 05:09:07;;;;;;;17.40;15.70;;;-5.60;99.90;;;;;;4908672;29;20464;-78
2023/02/08 05:11:36;;;;;;;19.37;17.20;;;-5.60;99.90;;;;;;4911653;29;20958;-78
2023/02/08 05:14:03;;;;;;;20.00;17.17;;;-5.70;99.90;;;;;;4912176;29;20524;-78
2023/02/08 05:16:30;;;;;;;19.93;17.93;;;-5.70;99.90;;;;;;4913761;29;20478;-78
2023/02/08 05:18:57;;;;;;;20.63;16.60;;;-5.70;99.90;;;;;;4912698;29;20516;-77
2023/02/08 05:21:23;;;;;;;18.73;16.83;;;-5.80;99.90;;;;;;4912675;29;20864;-78
2023/02/08 05:23:50;;;;;;;20.47;17.50;;;-5.80;99.90;;;;;;4913274;29;20448;-78
2023/02/08 05:26:17;;;;;;;21.30;18.57;;;-5.80;99.90;;;;;;4908545;29;20485;-78
2023/02/08 05:28:45;;;;;;;22.37;17.73;;;-5.80;99.90;;;;;;4910332;29;20449;-78
2023/02/08 05:31:16;;;;;;;19.63;17.53;;;-5.80;99.90;;;;;;4911935;29;20491;-78
2023/02/08 05:33:43;;;;;;;22.23;17.50;;;-5.80;99.90;;;;;;4911512;29;20480;-78
2023/02/08 05:36:10;;;;;;;20.80;17.77;;;-5.80;99.90;;;;;;4912278;29;20474;-78
2023/02/08 05:38:37;;;;;;;22.00;17.87;;;-5.80;99.90;;;;;;4912172;29;20453;-78
2023/02/08 05:41:04;;;;;;;19.40;17.40;;;-5.80;99.90;;;;;;4912009;29;20465;-78
2023/02/08 05:43:30;;;;;;;22.37;17.43;;;-5.90;99.90;;;;;;4909440;29;20451;-77
2023/02/08 05:45:59;;;;;;;21.57;18.50;;;-5.90;99.90;;;;;;4908902;29;20506;-78
2023/02/08 05:48:25;;;;;;;19.83;17.73;;;-5.80;99.90;;;;;;4907100;29;20479;-77
2023/02/08 05:50:52;;;;;;;18.90;16.93;;;-5.80;99.90;;;;;;4912698;29;20520;-78
2023/02/08 05:53:19;;;;;;;18.57;16.67;;;-5.90;99.90;;;;;;4905513;29;20557;-76
2023/02/08 05:55:47;;;;;;;21.53;17.90;;;-5.80;99.90;;;;;;4904175;29;20473;-77
2023/02/08 05:58:14;;;;;;;20.63;18.43;;;-5.80;99.90;;;;;;4914851;29;20473;-78
2023/02/08 06:00:41;;;;;;;19.53;17.47;;;-5.90;99.90;;;;;;4916010;29;20488;-77
2023/02/08 06:03:10;;;;;;;18.43;16.63;;;-5.90;99.90;;;;;;4914274;29;20942;-78
2023/02/08 06:05:38;;;;;;;18.83;16.93;;;-5.90;99.90;;;;;;4912053;29;20483;-77
2023/02/08 06:08:05;;;;;;;17.33;15.47;;;-5.90;99.90;;;;;;4913979;29;20945;-78
2023/02/08 06:10:31;;;;;;;19.43;17.20;;;-5.90;99.90;;;;;;4910357;29;20504;-78
2023/02/08 06:12:58;;;;;;;18.57;16.77;;;-6.00;99.90;;;;;;4909129;29;20530;-78
2023/02/08 06:15:25;;;;;;;20.37;17.60;;;-6.00;99.90;;;;;;4910261;29;20484;-78
2023/02/08 06:17:52;;;;;;;21.67;18.10;;;-5.90;99.90;;;;;;4910879;29;20467;-78
2023/02/08 06:20:20;;;;;;;18.90;16.90;;;-5.90;99.90;;;;;;4912157;29;20481;-78
2023/02/08 06:22:47;;;;;;;20.80;18.70;;;-6.00;99.90;;;;;;4910936;29;20461;-78
2023/02/08 06:25:14;;;;;;;19.27;17.27;;;-6.00;99.90;;;;;;4913791;29;20876;-78
2023/02/08 06:27:41;;;;;;;19.60;17.40;;;-6.10;99.90;;;;;;4911656;29;20474;-78
2023/02/08 06:30:09;;;;;;;22.37;18.70;;;-6.00;99.90;;;;;;4913811;29;20974;-78
2023/02/08 06:32:35;;;;;;;20.40;18.23;;;-6.10;99.90;;;;;;4914714;29;20472;-77
2023/02/08 06:35:02;;;;;;;18.40;16.67;;;-6.10;99.90;;;;;;4913600;29;20490;-78
2023/02/08 06:37:30;;;;;;;18.80;16.90;;;-6.10;99.90;;;;;;4912140;29;20497;-78
2023/02/08 06:39:57;;;;;;;21.10;18.00;;;-6.00;99.90;;;;;;4909731;29;20437;-78
2023/02/08 06:42:25;;;;;;;18.80;16.83;;;-6.00;99.90;;;;;;4911833;29;20467;-78
2023/02/08 06:44:54;;;;;;;21.97;18.10;;;-6.00;99.90;;;;;;4907931;29;20467;-76
2023/02/08 06:47:21;;;;;;;20.00;17.03;;;-6.00;99.90;;;;;;4908430;29;20448;-78
2023/02/08 06:49:48;;;;;;;22.97;18.00;;;-6.00;99.90;;;;;;4910117;29;20446;-82
2023/02/08 06:52:15;;;;;;;18.73;16.83;;;-5.90;99.90;;;;;;4902296;29;20464;-82
2023/02/08 06:54:43;;;;;;;21.80;18.60;;;-5.90;99.90;;;;;;4906919;29;20538;-82
2023/02/08 06:57:11;;;;;;;23.60;18.10;;;-5.80;99.90;;;;;;4907349;29;20995;-82
2023/02/08 06:59:38;;;;;;;25.70;17.80;;;-5.80;99.90;;;;;;4900828;29;20457;-82
2023/02/08 07:02:05;;;;;;;34.47;19.83;;;-5.80;99.90;;;;;;4906783;29;20490;-81
2023/02/08 07:04:32;;;;;;;25.53;18.47;;;-5.80;99.90;;;;;;4902609;29;20514;-81
2023/02/08 07:06:59;;;;;;;21.27;18.77;;;-5.80;99.90;;;;;;4901114;29;20451;-82
2023/02/08 07:09:26;;;;;;;26.17;19.10;;;-5.80;99.90;;;;;;4903762;29;20923;-80
2023/02/08 07:11:54;;;;;;;25.37;19.03;;;-5.80;99.90;;;;;;4907292;29;20653;-82
2023/02/08 07:14:21;;;;;;;22.77;19.47;;;-5.70;99.90;;;;;;4908323;29;20600;-82
2023/02/08 07:16:47;;;;;;;21.50;19.20;;;-5.70;99.90;;;;;;4907810;29;20455;-82
2023/02/08 07:19:14;;;;;;;29.17;20.93;;;-5.60;99.90;;;;;;4908586;29;20517;-82
2023/02/08 07:21:41;;;;;;;20.50;18.30;;;-5.60;99.90;;;;;;4908239;29;20501;-82
2023/02/08 07:24:08;;;;;;;22.50;19.23;;;-5.50;99.90;;;;;;4909124;29;20942;-82
2023/02/08 07:26:35;;;;;;;23.80;19.07;;;-5.30;99.90;;;;;;4904085;29;20480;-83
2023/02/08 07:29:03;;;;;;;25.23;19.53;;;-5.20;99.90;;;;;;4902934;29;20564;-82
2023/02/08 07:31:30;;;;;;;23.33;18.53;;;-5.10;99.90;;;;;;4913317;29;20491;-82
2023/02/08 07:33:58;;;;;;;22.30;17.57;;;-5.00;99.90;;;;;;4905047;29;20482;-82
2023/02/08 07:36:25;;;;;;;23.70;19.67;;;-4.90;99.90;;;;;;4907250;29;20481;-82
2023/02/08 07:38:52;;;;;;;20.10;17.90;;;-4.70;99.90;;;;;;4885654;29;20462;-83
2023/02/08 07:41:19;;;;;;;20.47;18.10;;;-4.60;99.90;;;;;;4924399;29;20449;-83
2023/02/08 07:43:45;;;;;;;24.07;19.17;;;-4.30;99.90;;;;;;4899972;29;20603;-83
2023/02/08 07:46:16;;;;;;;26.90;19.93;;;-4.10;99.90;;;;;;4913695;29;20473;-83
2023/02/08 07:48:43;;;;;;;35.37;19.87;;;-3.90;99.90;;;;;;4904964;29;20444;-82
2023/02/08 07:51:10;;;;;;;25.47;19.57;;;-3.60;99.90;;;;;;4905032;29;20988;-82
2023/02/08 07:53:37;;;;;;;21.03;18.80;;;-3.50;99.90;;;;;;4911760;29;21121;-78
2023/02/08 07:56:05;;;;;;;20.93;18.77;;;-3.30;99.90;;;;;;4909321;29;20981;-77
2023/02/08 07:58:32;;;;;;;27.23;19.30;;;-3.20;99.90;;;;;;4912522;29;20440;-78
2023/02/08 08:00:59;;;;;;;21.23;18.77;;;-3.00;99.90;;;;;;4910283;29;20453;-77
2023/02/08 08:03:27;;;;;;;21.10;18.87;;;-2.80;99.90;;;;;;4914454;29;20448;-78
2023/02/08 08:05:54;;;;;;;19.80;17.80;;;-2.60;99.90;;;;;;4912690;29;20472;-78
2023/02/08 08:08:21;;;;;;;20.47;18.30;;;-2.20;99.90;;;;;;4912017;29;20456;-78
2023/02/08 08:10:48;;;;;;;21.90;19.50;;;-1.80;99.90;;;;;;4912433;29;20469;-78
2023/02/08 08:13:15;;;;;;;21.60;19.37;;;-1.30;99.90;;;;;;4912988;29;20525;-84
2023/02/08 08:15:42;;;;;;;21.13;18.87;;;-0.90;99.90;;;;;;4895239;29;20910;-83
2023/02/08 08:18:09;;;;;;;21.73;19.63;;;-0.60;99.90;;;;;;4902663;29;20450;-84
2023/02/08 08:20:37;;;;;;;21.10;18.90;;;-0.20;99.90;;;;;;4905592;29;20945;-77
2023/02/08 08:23:04;;;;;;;21.83;18.60;;;0.10;99.90;;;;;;4912238;29;20570;-78
2023/02/08 08:25:30;;;;;;;21.23;18.97;;;0.40;99.90;;;;;;4904921;29;20536;-78
2023/02/08 08:27:57;;;;;;;19.87;17.90;;;0.70;99.90;;;;;;4914018;29;20445;-78
2023/02/08 08:30:24;;;;;;;21.03;18.93;;;1.10;99.90;;;;;;4906301;29;20507;-78
2023/02/08 08:32:51;;;;;;;21.07;18.97;;;1.30;99.90;;;;;;4908215;29;20946;-78
2023/02/08 08:35:18;;;;;;;25.00;20.17;;;1.60;99.90;;;;;;4911030;29;20492;-78
2023/02/08 08:37:46;;;;;;;20.60;18.50;;;1.70;99.90;;;;;;4903619;29;20507;-77
2023/02/08 08:40:13;;;;;;;20.97;18.87;;;1.60;99.90;;;;;;4910928;29;20483;-78
2023/02/08 08:42:40;;;;;;;21.30;19.13;;;1.60;99.90;;;;;;4909176;29;20196;-78
2023/02/08 08:45:08;;;;;;;21.53;19.13;;;1.80;99.90;;;;;;4907245;29;20461;-78
2023/02/08 08:47:35;;;;;;;20.23;18.33;;;2.20;99.90;;;;;;4910921;29;20201;-77
2023/02/08 08:50:01;;;;;;;22.40;19.13;;;2.60;99.90;;;;;;4908844;29;20452;-78
2023/02/08 08:52:28;;;;;;;22.33;20.00;;;2.80;99.90;;;;;;4903311;29;20228;-78
2023/02/08 08:54:56;;;;;;;21.03;19.00;;;2.80;99.90;;;;;;4913563;29;20228;-78
2023/02/08 08:57:23;;;;;;;21.43;19.43;;;3.30;99.90;;;;;;4904601;29;20196;-78
2023/02/08 08:59:50;;;;;;;22.03;19.67;;;3.30;99.90;;;;;;4910604;29;20586;-78
2023/02/08 09:02:17;;;;;;;20.47;18.37;;;3.30;99.90;;;;;;4904113;29;20272;-76
2023/02/08 09:04:44;;;;;;;22.10;19.43;;;3.30;99.90;;;;;;4905700;29;20220;-76
2023/02/08 09:07:11;;;;;;;21.40;19.27;;;3.10;99.90;;;;;;4903618;29;20208;-78
2023/02/08 09:09:38;;;;;;;20.67;18.50;;;3.20;99.90;;;;;;4907082;29;20204;-78
2023/02/08 09:12:06;;;;;;;22.83;19.77;;;3.30;99.90;;;;;;4905380;29;20200;-76
2023/02/08 09:14:33;;;;;;;22.73;19.27;;;3.10;99.90;;;;;;4906861;29;20208;-78
2023/02/08 09:17:00;;;;;;;21.47;19.47;;;2.90;99.90;;;;;;4903488;29;20629;-78
2023/02/08 09:19:27;;;;;;;19.80;17.90;;;2.90;99.90;;;;;;4913687;29;20201;-79
2023/02/08 09:21:54;;;;;;;21.27;19.10;;;3.00;99.90;;;;;;4906364;29;20677;-78
2023/02/08 09:24:21;;;;;;;21.03;18.83;;;3.20;99.90;;;;;;4906852;29;20279;-78
2023/02/08 09:26:48;;;;;;;22.00;19.67;;;3.20;99.90;;;;;;4904602;29;20263;-78
2023/02/08 09:29:16;;;;;;;20.70;18.50;;;3.10;99.90;;;;;;4907467;29;20208;-78
2023/02/08 09:31:43;;;;;;;20.80;18.57;;;3.10;99.90;;;;;;4905822;29;20196;-78
2023/02/08 09:34:10;;;;;;;21.37;19.33;;;3.20;99.90;;;;;;4900566;29;20657;-78
2023/02/08 09:36:39;;;;;;;22.20;19.90;;;3.30;99.90;;;;;;4908440;29;20231;-78
2023/02/08 09:39:09;;;;;;;20.77;18.53;;;3.10;99.90;;;;;;4888778;29;20208;-78
2023/02/08 09:41:57;;;;;;;22.13;19.13;;;3.20;99.90;;;;;;4914780;29;20271;-78
2023/02/08 09:44:32;;;;;;;21.47;19.23;;;3.20;99.90;;;;;;4907439;29;20229;-78
2023/02/08 09:47:02;;;;;;;21.03;18.93;;;2.90;99.90;;;;;;4902206;29;20752;-78
2023/02/08 09:49:35;;;;;;;19.83;17.67;;;2.90;99.90;;;;;;4904535;29;20415;-78
2023/02/08 09:52:06;;;;;;;20.90;18.77;;;2.80;99.90;;;;;;4913391;29;20617;-79
2023/02/08 09:54:37;;;;;;;19.83;17.73;;;2.70;99.90;;;;;;4906072;29;20211;-78
2023/02/08 09:57:06;;;;;;;18.97;17.03;;;2.70;99.90;;;;;;4904716;29;20200;-78
2023/02/08 09:59:35;;;;;;;21.37;17.80;;;2.50;99.90;;;;;;4912562;29;20204;-78
2023/02/08 10:02:24;;;;;;;19.20;17.20;;;2.60;99.90;;;;;;4912263;29;20208;-78
2023/02/08 10:05:03;;;;;;;18.13;16.20;;;2.60;99.90;;;;;;4906608;29;20228;-78
2023/02/08 10:07:32;;;;;;;22.00;17.63;;;2.80;99.90;;;;;;4906712;29;20601;-78
2023/02/08 10:10:01;;;;;;;19.00;17.03;;;2.80;99.90;;;;;;4913406;29;20286;-78
2023/02/08 10:12:37;;;;;;;17.97;16.10;;;2.80;99.90;;;;;;4905646;29;20201;-78
2023/02/08 10:15:15;;;;;;;17.77;15.90;;;2.80;99.90;;;;;;4907921;29;20231;-78
2023/02/08 10:18:08;;;;;;;18.37;16.40;;;2.80;99.90;;;;;;4899744;29;20280;-79
2023/02/08 10:20:49;;;;;;;18.87;16.90;;;2.80;99.90;;;;;;4906913;29;20624;-78
2023/02/08 10:23:32;;;;;;;18.97;16.33;;;2.60;99.90;;;;;;4908250;29;20204;-78
2023/02/08 10:26:20;;;;;;;19.50;16.07;;;2.50;99.90;;;;;;4906664;29;20301;-78
2023/02/08 10:29:05;;;;;;;21.07;16.57;;;2.50;99.90;;;;;;4906362;29;20213;-77
2023/02/08 10:31:47;;;;;;;18.53;16.63;;;2.50;99.90;;;;;;4905781;29;20213;-78
2023/02/08 10:34:26;;;;;;;17.50;15.80;;;2.50;99.90;;;;;;4908866;29;20899;-79
2023/02/08 10:36:53;;;;;;;18.07;16.30;;;2.50;99.90;;;;;;4907882;29;20974;-79
2023/02/08 10:39:27;;;;;;;17.27;15.63;;;2.50;99.90;;;;;;4908866;29;20464;-78
2023/02/08 10:41:55;;;;;;;17.57;15.83;;;2.50;99.90;;;;;;4909528;29;20342;-78
2023/02/08 10:44:28;;;;;;;16.57;14.97;;;2.60;99.90;;;;;;4900971;29;20233;-79
2023/02/08 10:47:07;;;;;;;17.03;15.33;;;2.70;99.90;;;;;;4910776;29;20570;-78
2023/02/08 10:49:39;;;;;;;17.13;15.43;;;2.70;99.90;;;;;;4909413;29;20212;-78
2023/02/08 10:52:07;;;;;;;16.63;14.83;;;2.60;99.90;;;;;;4911924;29;20202;-79
2023/02/08 10:54:34;;;;;;;18.63;16.77;;;2.60;99.90;;;;;;4914061;29;20467;-77
2023/02/08 10:57:04;;;;;;;17.33;15.63;;;2.60;99.90;;;;;;4924139;29;20436;-83
2023/02/08 10:59:35;;;;;;;16.17;14.57;;;2.60;99.90;;;;;;4914518;29;20279;-78
2023/02/08 11:02:10;;;;;;;16.03;14.43;;;2.80;99.90;;;;;;4914926;29;20201;-78
2023/02/08 11:04:57;;;;;;;16.23;14.50;;;2.90;99.90;;;;;;4920412;29;20452;-84
2023/02/08 11:07:24;;;;;;;15.73;14.13;;;2.90;99.90;;;;;;4912491;29;20207;-82
2023/02/08 11:09:52;;;;;;;15.07;13.67;;;3.00;99.90;;;;;;4907321;29;20867;-82
2023/02/08 11:12:21;;;;;;;14.33;12.97;;;3.00;99.90;;;;;;4916859;29;20268;-77
2023/02/08 11:14:51;;;;;;;13.30;11.97;;;3.10;99.90;;;;;;4910440;29;20217;-78
2023/02/08 11:17:26;;;;;;;13.43;12.23;;;3.00;99.90;;;;;;4915046;29;20452;-78
2023/02/08 11:19:53;;;;;;;13.67;12.37;;;3.10;99.90;;;;;;4913896;29;20205;-78
2023/02/08 11:22:22;;;;;;;13.30;12.10;;;3.10;99.90;;;;;;4913622;29;20212;-78
2023/02/08 11:24:56;;;;;;;13.40;12.20;;;3.10;99.90;;;;;;4912120;29;20528;-77
2023/02/08 11:27:32;;;;;;;13.40;12.07;;;3.20;99.90;;;;;;4917044;29;20225;-77
2023/02/08 11:30:19;;;;;;;12.93;11.77;;;3.20;99.90;;;;;;4911313;29;20704;-78
2023/02/08 11:33:08;;;;;;;13.33;12.13;;;3.30;99.90;;;;;;4908723;29;20448;-78
2023/02/08 11:35:36;;;;;;;13.23;12.00;;;3.30;99.90;;;;;;4907925;29;20477;-78
2023/02/08 11:38:03;;;;;;;13.87;12.63;;;3.30;99.90;;;;;;4914823;29;20692;-77
2023/02/08 11:40:35;;;;;;;13.47;12.30;;;3.30;99.90;;;;;;4915781;29;20264;-78
2023/02/08 11:43:02;;;;;;;13.53;12.33;;;3.30;99.90;;;;;;4914871;29;20209;-78
2023/02/08 11:45:32;;;;;;;14.10;12.90;;;3.30;99.90;;;;;;4916250;29;20709;-78
2023/02/08 11:48:03;;;;;;;13.97;12.77;;;3.30;99.90;;;;;;4914515;29;20639;-77
2023/02/08 11:50:32;;;;;;;13.53;12.23;;;3.40;99.90;;;;;;4909776;29;20252;-77
2023/02/08 11:53:01;;;;;;;14.70;13.33;;;3.40;99.90;;;;;;4915719;29;20204;-78
2023/02/08 11:55:30;;;;;;;14.13;12.83;;;3.40;99.90;;;;;;4916782;29;20224;-77
2023/02/08 11:58:00;;;;;;;15.17;13.83;;;3.50;99.90;;;;;;4909786;29;20241;-77
2023/02/08 12:00:29;;;;;;;14.90;13.50;;;3.50;99.90;;;;;;4905992;29;20204;-78
2023/02/08 12:03:01;;;;;;;15.20;13.80;;;3.50;99.90;;;;;;4912830;29;20201;-78
2023/02/08 12:05:40;;;;;;;14.60;13.20;;;3.40;99.90;;;;;;4907302;29;21763;-78
2023/02/08 12:08:16;;;;;;;15.17;13.67;;;3.40;99.90;;;;;;4914903;29;20665;-78
2023/02/08 12:11:07;;;;;;;14.93;13.63;;;3.40;99.90;;;;;;4913205;29;20204;-78
2023/02/08 12:14:02;;;;;;;14.77;13.47;;;3.60;99.90;;;;;;4905362;29;20196;-77
2023/02/08 12:16:47;;;;;;;14.83;13.63;;;3.60;99.90;;;;;;4901469;29;20216;-78
2023/02/08 12:19:44;;;;;;;14.27;13.00;;;3.50;99.90;;;;;;4914982;29;20263;-78
2023/02/08 12:22:16;;;;;;;15.33;14.10;;;3.50;99.90;;;;;;4916043;29;20217;-77
2023/02/08 12:24:49;;;;;;;14.90;13.57;;;3.50;99.90;;;;;;4911666;29;20211;-78
2023/02/08 12:27:29;;;;;;;14.80;13.50;;;3.50;99.90;;;;;;4910501;29;20233;-77
2023/02/08 12:30:07;;;;;;;14.80;13.50;;;3.50;99.90;;;;;;4916374;29;20207;-78
2023/02/08 12:32:53;;;;;;;14.03;12.83;;;3.50;99.90;;;;;;4906375;29;20203;-77
2023/02/08 12:35:42;;;;;;;14.93;13.53;;;3.50;99.90;;;;;;4906026;29;20708;-78
2023/02/08 12:41:04;;;;;;;13.83;12.57;;;3.60;99.90;;;;;;4869482;29;20263;-78
2023/02/08 12:43:42;;;;;;;13.77;12.50;;;3.60;99.90;;;;;;4909020;29;20625;-79
2023/02/08 12:46:20;;;;;;;14.17;12.87;;;3.70;99.90;;;;;;4904963;29;20284;-78
2023/02/08 12:49:01;;;;;;;15.00;13.50;;;3.60;99.90;;;;;;4917396;29;20660;-77
2023/02/08 12:51:37;;;;;;;15.83;14.40;;;3.60;99.90;;;;;;4911211;29;20205;-78
2023/02/08 12:54:10;;;;;;;14.63;13.33;;;3.50;99.90;;;;;;4909137;29;20204;-78
2023/02/08 12:56:40;;;;;;;15.10;13.73;;;3.60;99.90;;;;;;4900575;29;20709;-78
2023/02/08 12:59:11;;;;;;;14.60;13.30;;;3.60;99.90;;;;;;4910042;29;20200;-78
2023/02/08 13:01:42;;;;;;;15.23;13.83;;;3.60;99.90;;;;;;4906635;29;20209;-78
2023/02/08 13:04:13;;;;;;;15.13;13.73;;;3.60;99.90;;;;;;4907138;29;20204;-79
2023/02/08 13:06:44;;;;;;;15.63;14.23;;;3.50;99.90;;;;;;4906208;29;20244;-78
2023/02/08 13:09:17;;;;;;;14.60;13.30;;;3.50;99.90;;;;;;4908130;29;20208;-78
2023/02/08 13:11:49;;;;;;;15.30;14.00;;;3.60;99.90;;;;;;4906001;29;20674;-78
2023/02/08 13:14:29;;;;;;;15.60;13.90;;;3.60;99.90;;;;;;4910782;29;20200;-78
2023/02/08 13:17:00;;;;;;;14.50;13.30;;;3.70;99.90;;;;;;4906382;29;20230;-83
2023/02/08 13:19:32;;;;;;;15.63;14.20;;;3.70;99.90;;;;;;4909982;29;20208;-78
2023/02/08 13:22:01;;;;;;;15.17;13.77;;;3.70;99.90;;;;;;4910011;29;20204;-78
2023/02/08 13:24:35;;;;;;;14.20;13.10;;;3.70;99.90;;;;;;4897994;29;20444;-78
2023/02/08 13:27:02;;;;;;;15.17;13.83;;;3.70;99.90;;;;;;4902570;29;20661;-78
2023/02/08 13:29:29;;;;;;;15.80;14.30;;;3.80;99.90;;;;;;4899280;29;20196;-78
2023/02/08 13:32:00;;;;;;;14.60;13.40;;;3.80;99.90;;;;;;4905341;29;20208;-78
2023/02/08 13:34:32;;;;;;;15.10;13.70;;;3.80;99.90;;;;;;4908581;29;20195;-77
2023/02/08 13:37:03;;;;;;;16.37;14.77;;;3.80;99.90;;;;;;4906791;29;20296;-77
2023/02/08 13:39:35;;;;;;;15.87;14.37;;;3.80;99.90;;;;;;4898789;29;20670;-78
2023/02/08 13:42:04;;;;;;;14.47;13.07;;;3.70;99.90;;;;;;4902430;29;20200;-79
2023/02/08 13:44:33;;;;;;;14.83;13.37;;;3.80;99.90;;;;;;4904914;29;20247;-78
2023/02/08 13:47:00;;;;;;;14.57;13.10;;;3.90;99.90;;;;;;4907149;29;20200;-78
2023/02/08 13:49:52;;;;;;;14.53;13.10;;;3.90;99.90;;;;;;4910652;29;20239;-78
2023/02/08 13:52:49;;;;;;;14.60;13.30;;;3.90;99.90;;;;;;4909740;29;20199;-78
2023/02/08 13:55:55;;;;;;;13.90;12.70;;;3.90;99.90;;;;;;4908085;29;20646;-77
2023/02/08 13:58:36;;;;;;;15.13;13.13;;;3.90;99.90;;;;;;4899551;29;20212;-78
2023/02/08 14:01:18;;;;;;;16.13;14.63;;;3.90;99.90;;;;;;4903001;29;20204;-78
2023/02/08 14:04:15;;;;;;;15.17;13.60;;;3.90;99.90;;;;;;4907749;29;20203;-78
2023/02/08 14:06:47;;;;;;;16.57;14.53;;;3.90;99.90;;;;;;4899888;29;20588;-78
2023/02/08 14:09:21;;;;;;;17.13;14.40;;;3.90;99.90;;;;;;4908056;29;20252;-77
2023/02/08 14:11:53;;;;;;;15.20;13.60;;;3.90;99.90;;;;;;4908671;29;20208;-77
2023/02/08 14:14:23;;;;;;;16.20;14.70;;;3.80;99.90;;;;;;4903908;29;20611;-78
2023/02/08 14:17:09;;;;;;;15.87;14.27;;;3.80;99.90;;;;;;4902474;29;20216;-79
2023/02/08 14:19:37;;;;;;;15.70;14.20;;;3.80;99.90;;;;;;4902037;29;20196;-78
2023/02/08 14:22:07;;;;;;;18.03;15.13;;;3.70;99.90;;;;;;4908957;29;20204;-79
2023/02/08 14:24:42;;;;;;;16.73;15.27;;;3.70;99.90;;;;;;4910670;29;20677;-84
2023/02/08 14:27:18;;;;;;;16.73;14.73;;;3.70;99.90;;;;;;4912658;29;20200;-78
2023/02/08 14:29:56;;;;;;;17.83;15.97;;;3.70;99.90;;;;;;4914186;29;20895;-80
2023/02/08 14:32:24;;;;;;;17.73;15.77;;;3.70;99.90;;;;;;4910866;29;20653;-79
2023/02/08 14:35:00;;;;;;;16.53;14.90;;;3.70;99.90;;;;;;4913949;29;20220;-79
2023/02/08 14:37:30;;;;;;;17.67;15.80;;;3.70;99.90;;;;;;4908365;29;20256;-78
2023/02/08 14:40:47;;;;;;;16.77;15.17;;;3.70;99.90;;;;;;4908001;29;20273;-78
2023/02/08 14:43:32;;;;;;;17.23;15.43;;;3.60;99.90;;;;;;4908719;29;20296;-83
2023/02/08 14:46:33;;;;;;;16.60;15.00;;;3.50;99.90;;;;;;4898423;29;20232;-85
2023/02/08 14:49:00;;;;;;;17.03;15.33;;;3.50;99.90;;;;;;4909815;29;20212;-81
2023/02/08 14:51:34;;;;;;;16.53;14.90;;;3.40;99.90;;;;;;4902646;29;20294;-80
2023/02/08 14:54:14;;;;;;;17.57;15.83;;;3.40;99.90;;;;;;4905715;29;20595;-76
2023/02/08 14:56:52;;;;;;;17.30;15.67;;;3.40;99.90;;;;;;4902183;29;20288;-85
2023/02/08 14:59:24;;;;;;;17.60;15.80;;;3.50;99.90;;;;;;4908612;29;20487;-85
2023/02/08 15:01:54;;;;;;;17.47;15.60;;;3.40;99.90;;;;;;4908810;29;20201;-84
2023/02/08 15:04:21;;;;;;;19.43;17.53;;;3.30;99.90;;;;;;4911102;29;20204;-82
2023/02/08 15:07:08;;;;;;;19.63;17.53;;;3.30;99.90;;;;;;4908978;29;20201;-85
2023/02/08 15:09:38;;;;;;;20.70;17.73;;;3.30;99.90;;;;;;4891950;29;20200;-84
2023/02/08 15:12:14;;;;;;;19.43;17.53;;;3.20;99.90;;;;;;4908610;29;20211;-82
2023/02/08 15:14:42;;;;;;;22.13;17.90;;;3.10;99.90;;;;;;4901681;29;20212;-77
2023/02/08 15:17:29;;;;;;;22.30;18.93;;;3.10;99.90;;;;;;4913988;29;20227;-78
2023/02/08 15:19:56;;;;;;;21.27;19.00;;;3.00;99.90;;;;;;4911838;29;20205;-77
2023/02/08 15:22:32;;;;;;;21.83;18.40;;;3.00;99.90;;;;;;4919820;29;20224;-77
2023/02/08 15:25:01;;;;;;;18.83;16.83;;;2.90;99.90;;;;;;4910710;29;20224;-77
2023/02/08 15:27:31;;;;;;;19.43;17.63;;;2.90;99.90;;;;;;4899646;29;20201;-77
2023/02/08 15:29:59;;;;;;;21.13;19.00;;;2.80;99.90;;;;;;4911094;29;20219;-78
2023/02/08 15:32:28;;;;;;;21.40;18.90;;;2.80;99.90;;;;;;4915121;29;20224;-77
2023/02/08 15:34:58;;;;;;;22.20;18.40;;;2.70;99.90;;;;;;4913780;29;20253;-77
2023/02/08 15:37:26;;;;;;;28.50;18.20;;;2.70;99.90;;;;;;4908257;29;20292;-77
2023/02/08 15:39:55;;;;;;;21.40;18.30;;;2.60;99.90;;;;;;4911944;29;20291;-78
2023/02/08 15:42:24;;;;;;;22.60;19.10;;;2.50;99.90;;;;;;4914113;29;20509;-81
2023/02/08 15:44:52;;;;;;;21.10;18.80;;;2.50;99.90;;;;;;4908210;29;20296;-77
2023/02/08 15:47:24;;;;;;;21.47;17.97;;;2.50;99.90;;;;;;4909898;29;20992;-81
2023/02/08 15:49:54;;;;;;;20.70;18.47;;;2.40;99.90;;;;;;4911468;29;20204;-84
2023/02/08 15:52:24;;;;;;;21.77;19.47;;;2.30;99.90;;;;;;4911564;29;20212;-84
2023/02/08 15:54:51;;;;;;;23.17;19.30;;;2.30;99.90;;;;;;4910247;29;20498;-81
2023/02/08 15:57:26;;;;;;;22.27;18.93;;;2.20;99.90;;;;;;4910429;29;20511;-84